createdAt,value
2018-07-14T00:00:34.297Z,6.43
2018-07-14T00:03:02.961Z,6.20
2018-07-14T00:05:32.235Z,6.33
2018-07-14T00:08:00.751Z,6.10
2018-07-14T00:10:30.013Z,6.43
2018-07-14T00:12:58.654Z,6.70
2018-07-14T00:15:27.835Z,5.93
2018-07-14T00:17:57.267Z,6.60
2018-07-14T00:20:26.653Z,6.23
2018-07-14T00:22:55.502Z,6.53
2018-07-14T00:25:29.266Z,5.97
2018-07-14T00:27:58.257Z,6.60
2018-07-14T00:30:26.825Z,6.80
2018-07-14T00:32:56.394Z,6.20
2018-07-14T00:35:25.050Z,6.80
2018-07-14T00:37:53.614Z,6.83
2018-07-14T00:40:23.023Z,6.50
2018-07-14T00:42:52.171Z,6.70
2018-07-14T00:45:21.448Z,6.70
2018-07-14T00:47:49.989Z,6.80
2018-07-14T00:50:18.807Z,7.27
2018-07-14T00:52:47.360Z,8.03
2018-07-14T00:55:16.040Z,7.43
2018-07-14T00:57:45.153Z,8.03
2018-07-14T01:00:14.645Z,8.40
2018-07-14T01:02:43.162Z,8.40
2018-07-14T01:05:11.787Z,7.90
2018-07-14T01:07:40.314Z,8.23
2018-07-14T01:10:08.965Z,7.93
2018-07-14T01:12:38.402Z,8.90
2018-07-14T01:15:08.067Z,8.10
2018-07-14T01:17:38.887Z,7.50
2018-07-14T01:20:07.499Z,8.40
2018-07-14T01:22:36.521Z,7.80
2018-07-14T01:25:05.385Z,7.70
2018-07-14T01:27:34.497Z,7.30
2018-07-14T01:30:03.365Z,8.00
2018-07-14T01:32:32.418Z,7.70
2018-07-14T01:35:01.349Z,7.77
2018-07-14T01:37:30.449Z,7.47
2018-07-14T01:39:59.489Z,7.57
2018-07-14T01:42:28.697Z,7.10
2018-07-14T01:44:57.234Z,6.63
2018-07-14T01:47:25.757Z,7.50
2018-07-14T01:49:54.349Z,7.57
2018-07-14T01:52:23.126Z,7.10
2018-07-14T01:54:51.656Z,6.63
2018-07-14T01:57:20.221Z,7.70
2018-07-14T01:59:48.775Z,7.07
2018-07-14T02:02:17.369Z,7.10
2018-07-14T02:04:46.262Z,7.40
2018-07-14T02:07:14.840Z,7.70
2018-07-14T02:09:43.437Z,7.50
2018-07-14T02:12:12.098Z,7.20
2018-07-14T02:14:40.696Z,7.57
2018-07-14T02:17:09.772Z,7.83
2018-07-14T02:19:39.364Z,7.77
2018-07-14T02:22:08.026Z,7.30
2018-07-14T02:24:36.501Z,7.10
2018-07-14T02:27:05.049Z,7.33
2018-07-14T02:29:33.906Z,7.17
2018-07-14T02:32:02.585Z,8.10
2018-07-14T02:34:31.077Z,8.40
2018-07-14T02:36:59.656Z,9.30
2018-07-14T02:39:28.187Z,8.87
2018-07-14T02:41:56.831Z,8.80
2018-07-14T02:44:25.376Z,9.23
2018-07-14T02:46:53.962Z,9.10
2018-07-14T02:49:22.849Z,8.97
2018-07-14T02:51:51.469Z,9.83
2018-07-14T02:54:20.157Z,8.27
2018-07-14T02:56:49.951Z,9.13
2018-07-14T02:59:18.445Z,9.03
2018-07-14T03:01:46.994Z,9.03
2018-07-14T03:04:15.570Z,9.23
2018-07-14T03:06:44.150Z,9.17
2018-07-14T03:09:13.358Z,9.37
2018-07-14T03:11:42.909Z,9.97
2018-07-14T03:14:11.715Z,10.20
2018-07-14T03:16:40.225Z,10.00
2018-07-14T03:19:08.795Z,10.70
2018-07-14T03:21:37.338Z,9.47
2018-07-14T03:24:07.491Z,9.40
2018-07-14T03:26:36.056Z,9.03
2018-07-14T03:29:05.907Z,10.20
2018-07-14T03:31:34.985Z,10.03
2018-07-14T03:34:04.408Z,9.73
2018-07-14T03:36:33.628Z,9.30
2018-07-14T03:39:05.517Z,9.27
2018-07-14T03:41:34.949Z,9.90
2018-07-14T03:44:03.910Z,9.63
2018-07-14T03:46:32.822Z,10.23
2018-07-14T03:49:02.339Z,9.47
2018-07-14T03:51:33.735Z,10.37
2018-07-14T03:54:05.290Z,9.90
2018-07-14T03:56:34.104Z,9.63
2018-07-14T03:59:04.499Z,10.03
2018-07-14T04:01:33.911Z,9.33
2018-07-14T04:04:02.641Z,8.97
2018-07-14T04:06:31.659Z,10.43
2018-07-14T04:09:00.298Z,9.00
2018-07-14T04:11:28.901Z,10.20
2018-07-14T04:13:57.624Z,10.17
2018-07-14T04:16:26.717Z,10.33
2018-07-14T04:18:55.468Z,10.13
2018-07-14T04:21:24.049Z,9.43
2018-07-14T04:23:52.752Z,10.33
2018-07-14T04:26:21.313Z,9.30
2018-07-14T04:28:50.026Z,10.20
2018-07-14T04:31:18.626Z,9.77
2018-07-14T04:33:47.274Z,9.57
2018-07-14T04:36:15.830Z,10.10
2018-07-14T04:38:44.339Z,10.50
2018-07-14T04:41:12.959Z,9.27
2018-07-14T04:43:41.568Z,10.53
2018-07-14T04:46:10.782Z,9.97
2018-07-14T04:48:39.457Z,10.23
2018-07-14T04:51:08.290Z,9.37
2018-07-14T04:53:36.807Z,9.27
2018-07-14T04:56:05.451Z,8.80
2018-07-14T04:58:34.201Z,10.00
2018-07-14T05:01:02.761Z,9.40
2018-07-14T05:03:32.254Z,8.90
2018-07-14T05:06:01.148Z,9.13
2018-07-14T05:08:29.775Z,9.23
2018-07-14T05:10:59.093Z,8.90
2018-07-14T05:13:28.225Z,9.07
2018-07-14T05:15:56.699Z,8.33
2018-07-14T05:18:25.937Z,8.37
2018-07-14T05:20:54.481Z,8.07
2018-07-14T05:23:23.233Z,7.67
2018-07-14T05:25:51.732Z,6.93
2018-07-14T05:29:49.880Z,7.83
2018-07-14T05:32:19.143Z,7.00
2018-07-14T05:34:47.818Z,6.50
2018-07-14T05:37:17.266Z,6.57
2018-07-14T05:39:45.954Z,6.87
2018-07-14T05:42:16.397Z,5.77
2018-07-14T05:44:46.123Z,6.30
2018-07-14T05:47:15.844Z,5.90
2018-07-14T05:49:44.460Z,5.77
2018-07-14T05:52:13.069Z,5.33
2018-07-14T05:54:41.564Z,5.97
2018-07-14T05:57:10.854Z,6.23
2018-07-14T05:59:39.991Z,5.87
2018-07-14T06:02:08.657Z,6.20
2018-07-14T06:04:37.153Z,6.07
2018-07-14T06:07:05.717Z,6.13
2018-07-14T06:09:34.932Z,6.10
2018-07-14T06:12:04.261Z,5.13
2018-07-14T06:14:32.896Z,5.37
2018-07-14T06:17:02.532Z,4.70
2018-07-14T06:19:31.386Z,4.63
2018-07-14T06:21:59.975Z,4.20
2018-07-14T06:24:28.600Z,4.10
2018-07-14T06:26:57.351Z,4.17
2018-07-14T06:29:26.028Z,4.93
2018-07-14T06:31:54.590Z,5.00
2018-07-14T06:34:23.079Z,5.87
2018-07-14T06:36:51.617Z,5.20
2018-07-14T06:39:20.221Z,5.43
2018-07-14T06:41:48.903Z,5.30
2018-07-14T06:44:18.489Z,5.90
2018-07-14T06:46:47.774Z,5.60
2018-07-14T06:49:18.105Z,5.80
2018-07-14T06:51:46.653Z,5.90
2018-07-14T06:54:16.899Z,6.53
2018-07-14T06:56:47.386Z,6.57
2018-07-14T06:59:15.917Z,5.90
2018-07-14T07:01:46.402Z,5.80
2018-07-14T07:04:17.602Z,5.30
2018-07-14T07:06:46.644Z,4.90
2018-07-14T07:09:18.753Z,5.27
2018-07-14T07:11:48.874Z,4.97
2018-07-14T07:14:17.507Z,5.27
2018-07-14T07:16:48.085Z,5.33
2018-07-14T07:19:17.933Z,4.80
2018-07-14T07:21:47.633Z,4.80
2018-07-14T07:24:17.967Z,4.23
2018-07-14T07:26:48.419Z,4.10
2018-07-14T07:29:17.027Z,4.37
2018-07-14T07:31:46.023Z,4.40
2018-07-14T07:34:14.567Z,4.90
2018-07-14T07:36:44.137Z,4.10
2018-07-14T07:39:12.644Z,4.10
2018-07-14T07:41:42.260Z,4.30
2018-07-14T07:44:11.604Z,4.00
2018-07-14T07:46:40.088Z,3.70
2018-07-14T07:49:08.698Z,3.90
2018-07-14T07:51:37.219Z,3.60
2018-07-14T07:54:05.984Z,3.27
2018-07-14T07:56:34.475Z,3.50
2018-07-14T07:59:03.307Z,3.80
2018-07-14T08:01:31.833Z,4.17
2018-07-14T08:04:01.188Z,4.30
2018-07-14T08:06:29.871Z,4.30
2018-07-14T08:08:58.517Z,4.30
2018-07-14T08:11:27.965Z,4.07
2018-07-14T08:13:57.340Z,3.73
2018-07-14T08:16:26.455Z,5.00
2018-07-14T08:18:55.272Z,5.20
2018-07-14T08:21:25.498Z,4.30
2018-07-14T08:23:54.405Z,4.30
2018-07-14T08:26:23.308Z,4.22
2018-07-14T08:28:52.330Z,3.90
2018-07-14T08:31:22.076Z,4.50
2018-07-14T08:36:27.141Z,6.23
2018-07-14T08:38:57.268Z,6.27
2018-07-14T08:41:27.884Z,5.43
2018-07-14T08:44:00.111Z,5.80
2018-07-14T08:46:31.724Z,5.70
2018-07-14T08:49:02.863Z,6.23
2018-07-14T08:51:32.379Z,6.23
2018-07-14T08:54:01.609Z,5.00
2018-07-14T08:56:30.754Z,6.37
2018-07-14T08:59:00.026Z,6.80
2018-07-14T09:01:28.628Z,6.33
2018-07-14T09:03:57.304Z,6.30
2018-07-14T09:06:26.093Z,6.53
2018-07-14T09:08:56.596Z,6.80
2018-07-14T09:11:25.467Z,6.73
2018-07-14T09:13:56.246Z,7.03
2018-07-14T09:16:25.865Z,6.43
2018-07-14T09:18:54.620Z,7.10
2018-07-14T09:21:23.152Z,6.10
2018-07-14T09:23:51.720Z,6.90
2018-07-14T09:26:20.957Z,6.87
2018-07-14T09:28:50.150Z,5.70
2018-07-14T09:31:19.120Z,6.08
2018-07-14T09:33:50.097Z,5.83
2018-07-14T09:36:18.764Z,5.70
2018-07-14T09:38:48.258Z,6.67
2018-07-14T09:41:17.616Z,6.50
2018-07-14T09:43:47.841Z,6.27
2018-07-14T09:46:17.206Z,6.53
2018-07-14T09:48:46.205Z,6.37
2018-07-14T09:51:16.269Z,5.72
2018-07-14T09:53:45.223Z,5.42
2018-07-14T09:56:13.869Z,4.80
2018-07-14T09:58:42.407Z,4.97
2018-07-14T10:01:12.622Z,5.00
2018-07-14T10:03:41.865Z,5.03
2018-07-14T10:06:10.836Z,6.30
2018-07-14T10:08:39.686Z,6.15
2018-07-14T10:11:08.238Z,5.78
2018-07-14T10:13:37.724Z,5.25
2018-07-14T10:16:06.347Z,4.85
2018-07-14T10:18:35.062Z,5.17
2018-07-14T10:21:03.724Z,5.08
2018-07-14T10:23:32.481Z,5.92
2018-07-14T10:26:01.191Z,5.47
2018-07-14T10:28:30.823Z,5.40
2018-07-14T10:30:59.604Z,5.65
2018-07-14T10:33:28.331Z,5.70
2018-07-14T10:35:56.775Z,5.90
2018-07-14T10:38:26.161Z,5.90
2018-07-14T10:40:55.329Z,5.83
2018-07-14T10:43:24.732Z,5.40
2018-07-14T10:45:53.389Z,4.90
2018-07-14T10:48:22.921Z,4.90
2018-07-14T10:50:51.538Z,5.33
2018-07-14T10:53:20.253Z,5.20
2018-07-14T10:55:48.997Z,5.30
2018-07-14T10:58:17.673Z,5.15
2018-07-14T11:00:46.694Z,5.50
2018-07-14T11:03:15.306Z,5.67
2018-07-14T11:05:45.518Z,7.50
2018-07-14T11:08:15.029Z,5.90
2018-07-14T11:10:43.603Z,6.30
2018-07-14T11:13:12.656Z,6.10
2018-07-14T11:15:41.311Z,6.30
2018-07-14T11:18:10.611Z,5.78
2018-07-14T11:20:40.215Z,6.40
2018-07-14T11:23:10.650Z,6.20
2018-07-14T11:25:40.851Z,6.95
2018-07-14T11:28:11.841Z,6.40
2018-07-14T11:30:41.553Z,5.87
2018-07-14T11:33:11.782Z,5.83
2018-07-14T11:35:40.386Z,5.20
2018-07-14T11:38:10.584Z,4.83
2018-07-14T11:40:40.440Z,5.40
2018-07-14T11:43:09.296Z,5.12
2018-07-14T11:45:37.891Z,5.70
2018-07-14T11:48:07.184Z,6.58
2018-07-14T11:50:35.887Z,6.70
2018-07-14T11:53:05.834Z,7.15
2018-07-14T11:55:34.299Z,7.80
2018-07-14T11:58:03.290Z,5.87
2018-07-14T12:00:32.046Z,5.47
2018-07-14T12:03:01.637Z,7.62
2018-07-14T12:05:30.135Z,6.92
2018-07-14T12:07:59.398Z,6.25
2018-07-14T12:10:28.265Z,7.00
2018-07-14T12:12:57.420Z,6.55
2018-07-14T12:15:26.193Z,7.22
2018-07-14T12:17:54.786Z,6.78
2018-07-14T12:20:23.916Z,7.00
2018-07-14T12:22:52.652Z,6.97
2018-07-14T12:25:21.418Z,6.87
2018-07-14T12:27:51.691Z,6.25
2018-07-14T12:30:22.449Z,5.75
2018-07-14T12:32:52.101Z,5.78
2018-07-14T12:35:21.574Z,6.40
2018-07-14T12:37:51.173Z,6.80
2018-07-14T12:40:19.692Z,6.30
2018-07-14T12:42:49.043Z,5.87
2018-07-14T12:45:18.377Z,6.92
2018-07-14T12:47:47.463Z,6.45
2018-07-14T12:50:16.701Z,6.47
2018-07-14T12:52:46.896Z,6.55
2018-07-14T12:55:16.790Z,6.97
2018-07-14T12:57:45.912Z,6.25
2018-07-14T13:00:14.927Z,6.35
2018-07-14T13:02:44.845Z,5.30
2018-07-14T13:05:14.472Z,5.65
2018-07-14T13:07:43.503Z,5.50
2018-07-14T13:10:12.187Z,6.85
2018-07-14T13:12:42.398Z,7.17
2018-07-14T13:15:12.441Z,7.17
2018-07-14T13:17:41.269Z,8.08
2018-07-14T13:20:10.790Z,7.30
2018-07-14T13:22:40.214Z,7.37
2018-07-14T13:25:08.777Z,7.33
2018-07-14T13:27:38.639Z,7.37
2018-07-14T13:30:09.158Z,8.30
2018-07-14T13:32:38.898Z,7.72
2018-07-14T13:35:07.706Z,7.65
2018-07-14T13:37:36.310Z,7.75
2018-07-14T13:40:05.724Z,7.17
2018-07-14T13:42:35.285Z,7.70
2018-07-14T13:45:04.520Z,8.00
2018-07-14T13:47:34.429Z,8.30
2018-07-14T13:50:03.162Z,8.88
2018-07-14T13:52:33.313Z,7.60
2018-07-14T13:55:02.366Z,8.08
2018-07-14T13:57:30.954Z,7.72
2018-07-14T13:59:59.619Z,8.05
2018-07-14T14:02:28.322Z,7.72
2018-07-14T14:04:56.987Z,8.35
2018-07-14T14:07:26.182Z,7.55
2018-07-14T14:09:56.674Z,7.50
2018-07-14T14:12:25.886Z,8.00
2018-07-14T14:14:55.003Z,7.97
2018-07-14T14:17:24.278Z,7.87
2018-07-14T14:19:52.955Z,7.22
2018-07-14T14:22:21.516Z,7.85
2018-07-14T14:24:50.385Z,8.33
2018-07-14T14:27:19.673Z,9.18
2018-07-14T14:29:48.276Z,8.00
2018-07-14T14:32:16.840Z,7.95
2018-07-14T14:34:45.538Z,7.47
2018-07-14T14:37:15.011Z,7.72
2018-07-14T14:39:43.717Z,7.42
2018-07-14T14:42:12.847Z,6.95
2018-07-14T14:44:41.561Z,6.80
2018-07-14T14:47:10.265Z,7.10
2018-07-14T14:49:39.048Z,6.00
2018-07-14T14:52:08.142Z,6.10
2018-07-14T14:54:36.974Z,5.70
2018-07-14T14:57:07.037Z,6.03
2018-07-14T14:59:35.565Z,5.75
2018-07-14T15:02:04.375Z,5.00
2018-07-14T15:04:32.922Z,6.65
2018-07-14T15:07:02.056Z,7.40
2018-07-14T15:09:31.473Z,6.42
2018-07-14T15:12:00.150Z,7.00
2018-07-14T15:14:28.784Z,5.65
2018-07-14T15:16:57.580Z,4.75
2018-07-14T15:19:26.484Z,4.72
2018-07-14T15:21:55.082Z,4.00
2018-07-14T15:24:23.966Z,3.87
2018-07-14T15:26:53.476Z,3.95
2018-07-14T15:29:22.443Z,3.87
2018-07-14T15:38:40.509Z,4.08
2018-07-14T15:41:09.103Z,3.98
2018-07-14T15:43:37.695Z,3.83
2018-07-14T15:46:06.522Z,3.70
2018-07-14T15:48:39.496Z,3.42
2018-07-14T15:51:08.658Z,3.10
2018-07-14T15:53:38.125Z,3.83
2018-07-14T15:56:07.029Z,3.10
2018-07-14T15:58:35.513Z,3.60
2018-07-14T16:01:05.142Z,3.42
2018-07-14T16:03:33.940Z,3.20
2018-07-14T16:06:02.592Z,3.33
2018-07-14T16:08:32.222Z,3.62
2018-07-14T16:11:00.818Z,3.17
2018-07-14T16:13:29.462Z,3.12
2018-07-14T16:16:00.027Z,2.95
2018-07-14T16:18:28.603Z,3.22
2018-07-14T16:20:57.189Z,3.75
2018-07-14T16:23:26.205Z,2.80
2018-07-14T16:25:54.939Z,2.60
2018-07-14T16:28:24.197Z,2.50
2018-07-14T16:30:53.336Z,2.30
2018-07-14T16:33:21.984Z,2.20
2018-07-14T16:35:51.139Z,2.20
2018-07-14T16:38:19.658Z,2.20
2018-07-14T16:40:48.855Z,2.20
2018-07-14T16:43:17.437Z,2.15
2018-07-14T16:45:46.047Z,1.98
2018-07-14T16:48:14.713Z,2.15
2018-07-14T16:50:43.559Z,2.10
2018-07-14T16:53:13.110Z,2.17
2018-07-14T16:55:41.713Z,2.20
2018-07-14T16:58:10.313Z,2.33
2018-07-14T17:00:39.108Z,2.10
2018-07-14T17:03:08.917Z,1.75
2018-07-14T17:05:37.488Z,3.80
2018-07-14T17:08:09.195Z,3.10
2018-07-14T17:10:39.142Z,3.42
2018-07-14T17:13:08.035Z,4.70
2018-07-14T17:15:37.306Z,3.40
2018-07-14T17:18:06.261Z,2.20
2018-07-14T17:20:34.844Z,2.25
2018-07-14T17:23:03.670Z,2.25
2018-07-14T17:25:33.196Z,2.35
2018-07-14T17:28:01.850Z,2.10
2018-07-14T17:30:30.335Z,2.30
2018-07-14T17:32:58.855Z,2.45
2018-07-14T17:35:27.444Z,2.40
2018-07-14T17:37:56.666Z,2.10
2018-07-14T17:40:25.620Z,2.90
2018-07-14T17:42:55.622Z,2.65
2018-07-14T17:45:24.627Z,2.10
2018-07-14T17:47:53.066Z,2.52
2018-07-14T17:50:22.655Z,2.37
2018-07-14T17:52:51.396Z,2.35
2018-07-14T17:55:20.263Z,2.30
2018-07-14T17:57:48.846Z,2.20
2018-07-14T18:00:17.406Z,5.45
2018-07-14T18:02:46.057Z,3.98
2018-07-14T18:05:14.655Z,3.67
2018-07-14T18:07:43.186Z,3.47
2018-07-14T18:10:13.354Z,2.72
2018-07-14T18:12:42.767Z,2.42
2018-07-14T18:15:12.168Z,3.15
2018-07-14T18:17:41.273Z,3.00
2018-07-14T18:20:10.208Z,2.67
2018-07-14T18:22:38.722Z,2.70
2018-07-14T18:25:07.325Z,3.20
2018-07-14T18:27:35.844Z,2.60
2018-07-14T18:30:04.648Z,2.22
2018-07-14T18:32:33.828Z,2.50
2018-07-14T18:35:02.579Z,2.47
2018-07-14T18:37:32.176Z,2.72
2018-07-14T18:40:02.095Z,3.50
2018-07-14T18:42:30.867Z,3.30
2018-07-14T18:44:59.955Z,3.40
2018-07-14T18:47:28.608Z,2.80
2018-07-14T18:49:57.867Z,3.20
2018-07-14T18:52:27.761Z,3.08
2018-07-14T18:54:56.261Z,2.47
2018-07-14T18:57:25.434Z,2.20
2018-07-14T18:59:54.708Z,2.25
2018-07-14T19:02:23.236Z,2.40
2018-07-14T19:04:52.677Z,2.15
2018-07-14T19:07:21.594Z,2.10
2018-07-14T19:09:50.510Z,2.20
2018-07-14T19:12:19.945Z,2.27
2018-07-14T19:14:50.167Z,2.20
2018-07-14T19:17:18.989Z,2.40
2018-07-14T19:19:48.182Z,2.30
2018-07-14T19:22:16.857Z,2.20
2018-07-14T19:24:45.580Z,1.95
2018-07-14T19:27:15.113Z,1.82
2018-07-14T19:29:42.672Z,1.82
2018-07-14T19:32:11.262Z,1.90
2018-07-14T19:34:40.569Z,1.95
2018-07-14T19:37:09.360Z,1.82
2018-07-14T19:39:38.986Z,1.60
2018-07-14T19:42:08.204Z,1.62
2018-07-14T19:44:37.002Z,1.72
2018-07-14T19:47:05.647Z,1.60
2018-07-14T19:49:34.195Z,1.70
2018-07-14T19:52:02.844Z,1.70
2018-07-14T19:54:32.363Z,1.92
2018-07-14T19:57:01.066Z,1.75
2018-07-14T19:59:30.376Z,2.10
2018-07-14T20:01:59.006Z,1.90
2018-07-14T20:04:28.361Z,2.08
2018-07-14T20:06:57.761Z,1.90
2018-07-14T20:09:26.286Z,1.82
2018-07-14T20:11:54.922Z,1.80
2018-07-14T20:14:23.461Z,1.75
2018-07-14T20:16:52.785Z,2.08
2018-07-14T20:19:22.157Z,1.70
2018-07-14T20:21:50.725Z,1.60
2018-07-14T20:24:20.038Z,1.70
2018-07-14T20:26:48.559Z,1.70
2018-07-14T20:29:18.024Z,1.70
2018-07-14T20:31:47.707Z,1.70
2018-07-14T20:34:16.701Z,1.80
2018-07-14T20:36:45.637Z,1.50
2018-07-14T20:39:14.472Z,1.67
2018-07-14T20:41:43.137Z,1.60
2018-07-14T20:44:12.100Z,1.82
2018-07-14T20:46:40.785Z,1.57
2018-07-14T20:49:09.611Z,1.67
2018-07-14T20:51:38.586Z,1.60
2018-07-14T20:54:07.744Z,1.80
2018-07-14T20:56:36.316Z,1.60
2018-07-14T20:59:04.796Z,1.65
2018-07-14T21:01:33.517Z,1.80
2018-07-14T21:04:02.215Z,1.80
2018-07-14T21:06:30.684Z,1.80
2018-07-14T21:09:01.346Z,1.80
2018-07-14T21:11:30.600Z,1.82
2018-07-14T21:13:59.691Z,1.60
2018-07-14T21:16:29.356Z,1.70
2018-07-14T21:18:58.754Z,1.90
2018-07-14T21:21:27.887Z,1.90
2018-07-14T21:23:57.255Z,1.77
2018-07-14T21:26:26.519Z,1.90
2018-07-14T21:28:55.079Z,1.98
2018-07-14T21:31:24.025Z,2.05
2018-07-14T21:33:52.614Z,2.00
2018-07-14T21:36:21.184Z,2.00
2018-07-14T21:38:51.123Z,2.00
2018-07-14T21:41:20.074Z,2.40
2018-07-14T21:43:48.833Z,2.20
2018-07-14T21:46:17.432Z,2.50
2018-07-14T21:48:47.644Z,2.20
2018-07-14T21:51:16.813Z,1.92
2018-07-14T21:53:46.606Z,2.00
2018-07-14T21:56:15.130Z,2.30
2018-07-14T21:58:43.669Z,2.17
2018-07-14T22:01:18.303Z,2.50
2018-07-14T22:03:47.428Z,2.30
2018-07-14T22:06:16.588Z,2.20
2018-07-14T22:08:46.917Z,1.87
2018-07-14T22:11:15.754Z,2.33
2018-07-14T22:13:45.172Z,2.03
2018-07-14T22:16:13.715Z,2.10
2018-07-14T22:18:42.182Z,2.00
2018-07-14T22:21:10.862Z,1.97
2018-07-14T22:23:39.848Z,2.20
2018-07-14T22:26:08.569Z,2.10
2018-07-14T22:28:37.696Z,1.90
2018-07-14T22:31:06.576Z,2.03
2018-07-14T22:33:35.199Z,1.90
2018-07-14T22:36:03.761Z,1.90
2018-07-14T22:38:32.395Z,1.87
2018-07-14T22:41:01.018Z,2.20
2018-07-14T22:43:30.327Z,1.90
2018-07-14T22:45:58.873Z,2.05
2018-07-14T22:48:27.597Z,2.10
2018-07-14T22:50:57.199Z,1.80
2018-07-14T22:53:26.851Z,1.87
2018-07-14T22:55:57.384Z,2.13
2018-07-14T22:58:27.939Z,2.17
2018-07-14T23:00:57.360Z,2.40
2018-07-14T23:03:26.528Z,1.97
2018-07-14T23:05:55.150Z,2.20
2018-07-14T23:08:24.741Z,1.97
2018-07-14T23:10:54.724Z,2.20
2018-07-14T23:13:23.455Z,2.20
2018-07-14T23:15:52.145Z,2.10
2018-07-14T23:18:23.549Z,2.27
2018-07-14T23:20:54.449Z,2.27
2018-07-14T23:23:24.692Z,2.00
2018-07-14T23:25:53.616Z,2.60
2018-07-14T23:28:22.546Z,2.40
2018-07-14T23:30:52.150Z,2.20
2018-07-14T23:33:21.357Z,2.50
2018-07-14T23:35:50.953Z,2.40
2018-07-14T23:38:19.536Z,2.40
2018-07-14T23:40:48.052Z,2.30
2018-07-14T23:43:17.489Z,2.40
2018-07-14T23:45:47.352Z,2.40
2018-07-14T23:48:15.941Z,2.00
2018-07-14T23:50:44.552Z,2.10
2018-07-14T23:53:13.290Z,2.10
2018-07-14T23:55:41.869Z,2.07
2018-07-14T23:58:11.016Z,2.20
